Date,TemperatureHighF,TemperatureAvgF,TemperatureLowF,DewpointHighF,DewpointAvgF,DewpointLowF,HumidityHigh,HumidityAvg,HumidityLow,PressureMaxIn,PressureMinIn,WindSpeedMaxMPH,WindSpeedAvgMPH,GustSpeedMaxMPH,PrecipitationSumIn
2013-2-1,26.9,13.7,-3.9,19.0,7.0,-8.0,82,75,68,30.36,29.98,18,6,23,0.00
2013-2-2,39.5,30.5,24.9,33.0,24.9,19.0,87,80,70,30.09,29.92,19,4,33,0.00
2013-2-3,42.3,33.9,22.2,31.0,25.2,16.0,82,71,57,30.10,29.65,20,6,30,0.00
2013-2-4,35.3,27.8,23.1,30.0,23.3,20.0,89,83,75,29.89,29.63,20,5,27,0.00
2013-2-5,49.7,36.9,25.9,35.0,28.7,24.0,91,74,50,29.93,29.72,18,4,25,0.00
2013-2-6,54.8,41.3,31.0,41.0,33.9,27.0,85,76,57,29.94,29.68,17,7,23,0.00
2013-2-7,39.3,34.0,29.7,36.0,29.9,24.0,90,84,80,30.11,29.73,18,9,28,0.00
2013-2-8,32.4,28.8,25.7,28.0,25.2,23.0,91,86,79,30.22,30.02,15,7,20,0.00
2013-2-9,48.5,37.5,29.3,40.0,32.8,27.0,91,83,71,30.04,29.52,25,15,31,0.00
2013-2-10,46.1,37.8,31.6,43.0,33.6,24.0,96,85,73,29.65,29.12,29,15,40,0.01
2013-2-11,37.1,30.8,23.8,27.0,23.8,21.0,89,75,64,30.03,29.67,31,10,40,0.00
2013-2-12,48.0,33.5,20.5,28.0,23.0,18.0,92,68,42,30.03,29.77,12,2,15,0.00
2013-2-13,53.9,38.7,24.3,33.0,27.2,21.0,87,66,41,29.78,29.59,9,2,14,0.00
2013-2-14,44.9,37.1,23.8,33.0,28.0,17.0,92,71,46,30.13,29.65,24,9,31,0.00
2013-2-15,32.1,23.2,14.9,25.0,16.9,11.0,92,78,52,30.24,30.14,15,5,19,0.00
2013-2-16,32.3,23.5,8.4,26.0,18.6,6.0,91,82,71,30.23,29.89,10,4,14,0.00
2013-2-17,55.4,38.1,23.4,38.0,29.1,19.0,86,71,52,29.89,29.41,19,11,26,0.00
2013-2-18,43.7,32.4,22.0,34.0,25.9,16.0,94,77,64,29.93,29.39,30,12,43,0.00
2013-2-19,26.5,17.5,10.2,17.0,5.6,2.0,78,61,35,30.28,29.93,23,13,33,0.00
2013-2-20,25.1,15.9,5.2,10.0,4.7,-1.0,76,62,48,30.29,30.11,17,8,21,0.00
2013-2-21,24.6,22.1,21.2,21.0,15.7,9.0,92,77,57,30.14,29.72,21,12,26,0.00
2013-2-22,22.5,18.9,7.9,20.0,14.8,5.0,92,84,73,29.92,29.72,16,7,24,0.00
2013-2-23,36.9,21.5,4.2,28.0,16.2,1.0,90,80,67,29.91,29.73,9,3,12,0.03
2013-2-24,39.9,30.5,18.1,30.0,24.7,16.0,92,80,64,29.92,29.78,7,3,9,0.00
2013-2-25,35.4,30.9,27.6,29.0,26.7,25.0,91,84,74,29.94,29.76,10,5,14,0.00
2013-2-26,32.4,29.3,26.6,29.0,26.5,25.0,93,89,85,29.77,29.64,17,10,21,0.00
2013-2-27,38.0,30.7,25.1,28.0,24.5,21.0,89,78,62,29.95,29.75,24,14,35,0.00
2013-2-28,32.4,28.2,25.7,26.0,23.1,21.0,85,81,74,30.10,29.96,20,12,27,0.00